Time;durP1;ratioP1;P1;durP2;ratioP2;P2;SDS_P1;SDS_P2;PMS_P1;PMS_P2;Temp;Humidity;BMP_temperature;BMP_pressure;BME280_temperature;BME280_humidity;BME280_pressure;Samples;Min_cycle;Max_cycle;Signal;HPM_P1;HPM_P2
2022/10/24 00:01:47;;;;;;;55.75;36.63;;;358.60;2329.60;;;;;;5035441;28;20021;-76
2022/10/24 00:04:13;;;;;;;50.65;33.17;;;358.60;2329.60;;;;;;5053013;28;20025;-75
2022/10/24 00:06:40;;;;;;;51.20;31.30;;;358.60;2329.60;;;;;;5052789;28;20021;-75
2022/10/24 00:09:07;;;;;;;38.95;26.83;;;358.70;2329.60;;;;;;5035358;28;20035;-76
2022/10/24 00:11:34;;;;;;;35.95;25.75;;;358.60;2329.60;;;;;;5039167;28;20108;-77
2022/10/24 00:14:00;;;;;;;36.65;24.45;;;358.60;2329.60;;;;;;5039340;28;20071;-76
2022/10/24 00:16:27;;;;;;;33.35;23.42;;;333.60;2329.60;;;;;;5039500;28;20116;-75
2022/10/24 00:18:53;;;;;;;33.90;24.45;;;358.50;2329.60;;;;;;5039487;28;20033;-76
2022/10/24 00:21:19;;;;;;;33.88;24.73;;;358.40;2329.60;;;;;;5039011;28;20025;-77
2022/10/24 00:23:45;;;;;;;35.03;25.13;;;358.40;2329.60;;;;;;5039276;28;20475;-75
2022/10/24 00:26:12;;;;;;;94.55;51.90;;;333.60;2329.60;;;;;;5056988;28;20033;-75
2022/10/24 00:28:38;;;;;;;46.17;31.92;;;;;;;;;;5056487;28;20037;-78
2022/10/24 00:31:06;;;;;;;40.03;26.88;;;333.30;2329.60;;;;;;5039415;28;20017;-77
2022/10/24 00:33:33;;;;;;;61.85;40.97;;;333.40;2329.60;;;;;;5039205;28;20025;-75
2022/10/24 00:35:59;;;;;;;52.20;32.97;;;333.40;2329.60;;;;;;5038854;28;20025;-76
2022/10/24 00:38:24;;;;;;;49.05;32.80;;;333.30;2329.60;;;;;;5039059;28;20605;-77
2022/10/24 00:40:50;;;;;;;58.55;38.30;;;333.30;2329.60;;;;;;5038984;28;20025;-76
2022/10/24 00:43:20;;;;;;;65.00;58.80;;;333.20;2329.60;;;;;;5056304;28;20466;-74
2022/10/24 00:46:01;;;;;;;53.00;46.75;;;333.20;2329.60;;;;;;5039104;28;20025;-75
2022/10/24 00:48:35;;;;;;;34.58;25.38;;;;;;;;;;5038582;28;20041;-76
2022/10/24 00:51:05;;;;;;;50.13;34.40;;;;;;;;;;5038852;28;20090;-75
2022/10/24 00:53:32;;;;;;;35.25;24.88;;;;;;;;;;5056886;28;20045;-75
2022/10/24 00:56:00;;;;;;;31.60;23.42;;;;;;;;;;5056431;28;20032;-75
2022/10/24 00:58:28;;;;;;;29.35;21.38;;;;;;;;;;5038686;28;20033;-76
2022/10/24 01:00:54;;;;;;;35.15;23.17;;;;;;;;;;5056254;28;20501;-76
2022/10/24 01:03:20;;;;;;;31.23;23.30;;;;;;;;;;5038534;28;20082;-77
2022/10/24 01:05:54;;;;;;;30.35;22.10;;;;;;;;;;5038607;28;20021;-75
2022/10/24 01:08:49;;;;;;;32.28;20.45;;;308.10;2304.00;;;;;;5038554;28;20025;-75
2022/10/24 01:11:21;;;;;;;30.95;22.25;;;308.00;2304.00;;;;;;5056461;28;20033;-77
2022/10/24 01:13:54;;;;;;;29.67;21.52;;;307.80;2304.00;;;;;;5056189;28;20100;-76
2022/10/24 01:16:42;;;;;;;28.63;20.52;;;307.90;2304.00;;;;;;5056125;28;20095;-76
2022/10/24 01:19:20;;;;;;;32.90;22.33;;;308.00;2304.00;;;;;;5038459;28;20041;-76
2022/10/24 01:22:02;;;;;;;31.25;21.55;;;308.10;2304.00;;;;;;5038138;28;20033;-77
2022/10/24 01:24:49;;;;;;;29.67;21.03;;;332.90;2329.60;;;;;;5037775;28;20074;-76
2022/10/24 01:27:24;;;;;;;30.58;21.60;;;332.90;2329.60;;;;;;5056103;28;20255;-76
2022/10/24 01:30:07;;;;;;;28.30;19.40;;;333.00;2329.60;;;;;;5038096;28;20470;-75
2022/10/24 01:32:40;;;;;;;30.08;22.20;;;332.90;2329.60;;;;;;5037991;28;20035;-75
2022/10/24 01:35:32;;;;;;;38.08;25.33;;;332.90;2329.60;;;;;;5056278;28;20387;-75
2022/10/24 01:38:19;;;;;;;35.28;22.65;;;332.90;2329.60;;;;;;5055941;28;20028;-76
2022/10/24 01:41:22;;;;;;;32.25;22.63;;;332.90;2329.60;;;;;;5038152;28;20382;-75
2022/10/24 01:44:16;;;;;;;33.75;23.17;;;333.00;2329.60;;;;;;4958920;28;20506;-74
2022/10/24 01:47:07;;;;;;;26.35;19.75;;;332.90;2329.60;;;;;;5024662;28;20501;-75
2022/10/24 01:49:37;;;;;;;27.38;18.77;;;333.00;2329.60;;;;;;5051232;28;20037;-76
2022/10/24 01:52:08;;;;;;;26.52;17.42;;;333.00;2329.60;;;;;;5034017;28;20141;-75
2022/10/24 01:54:36;;;;;;;27.77;19.02;;;333.10;2329.60;;;;;;5016596;28;20479;-78
2022/10/24 01:57:02;;;;;;;24.98;17.73;;;333.00;2329.60;;;;;;5034299;28;20030;-76
2022/10/24 01:59:27;;;;;;;26.23;20.23;;;333.00;2329.60;;;;;;5017611;28;20079;-75
2022/10/24 02:01:57;;;;;;;26.60;19.80;;;308.10;2304.00;;;;;;5034324;28;20028;-76
2022/10/24 02:04:26;;;;;;;31.90;19.60;;;308.10;2304.00;;;;;;5034173;28;20053;-75
2022/10/24 02:06:55;;;;;;;30.75;20.42;;;307.90;2304.00;;;;;;5017338;28;20025;-77
2022/10/24 02:09:23;;;;;;;27.73;19.95;;;307.80;2304.00;;;;;;5017444;28;20033;-77
2022/10/24 02:11:51;;;;;;;30.38;20.45;;;308.00;2304.00;;;;;;5017623;28;20030;-76
2022/10/24 02:14:27;;;;;;;30.23;20.58;;;307.80;2304.00;;;;;;5017375;28;20140;-78
2022/10/24 02:16:53;;;;;;;30.52;20.23;;;308.00;2304.00;;;;;;5023490;28;20474;-75
2022/10/24 02:19:20;;;;;;;27.80;20.52;;;308.00;2304.00;;;;;;5036941;28;20040;-75
2022/10/24 02:21:52;;;;;;;32.47;21.55;;;307.90;2304.00;;;;;;5036363;28;20529;-76
2022/10/24 02:24:37;;;;;;;;;;;308.00;2304.00;;;;;;5037393;28;20037;-77
2022/10/24 02:27:05;;;;;;;28.50;20.80;;;307.80;2304.00;;;;;;5054347;28;19913;-75
2022/10/24 02:29:47;;;;;;;34.65;21.35;;;307.80;2304.00;;;;;;5037017;28;20060;-78
2022/10/24 02:32:16;;;;;;;31.33;20.55;;;;;;;;;;5036517;28;20021;-75
2022/10/24 02:34:42;;;;;;;26.20;19.65;;;;;;;;;;5036545;28;20025;-76
2022/10/24 02:37:10;;;;;;;30.55;20.55;;;;;;;;;;5036772;28;20514;-75
2022/10/24 02:39:37;;;;;;;28.65;20.55;;;;;;;;;;5036842;28;20029;-77
2022/10/24 02:42:05;;;;;;;29.85;19.73;;;;;;;;;;5036556;28;20049;-77
2022/10/24 02:44:31;;;;;;;30.77;19.95;;;;;;;;;;5036767;28;20619;-76
2022/10/24 02:46:59;;;;;;;33.85;20.48;;;;;;;;;;5036670;28;20458;-76
2022/10/24 02:49:25;;;;;;;31.30;20.40;;;;;;;;;;5036358;28;20029;-78
2022/10/24 02:51:51;;;;;;;29.02;21.20;;;;;;;;;;5027959;28;233375;-76
2022/10/24 02:54:18;;;;;;;31.73;22.25;;;;;;;;;;5053344;28;20032;-76
2022/10/24 02:56:47;;;;;;;31.25;20.83;;;;;;;;;;5036547;28;20025;-75
2022/10/24 02:59:13;;;;;;;28.90;20.25;;;;;;;;;;5036180;28;20033;-78
2022/10/24 03:01:39;;;;;;;28.08;19.45;;;;;;;;;;5036113;28;20478;-79
2022/10/24 03:04:05;;;;;;;26.33;19.00;;;;;;;;;;5036467;28;20030;-78
2022/10/24 03:06:31;;;;;;;30.50;21.02;;;;;;;;;;5036414;28;20482;-75
2022/10/24 03:08:57;;;;;;;27.75;19.67;;;;;;;;;;5035936;28;20060;-78
2022/10/24 03:11:23;;;;;;;27.50;17.63;;;;;;;;;;5036060;28;20112;-77
2022/10/24 03:13:50;;;;;;;29.40;18.85;;;;;;;;;;5036220;28;20048;-79
2022/10/24 03:16:16;;;;;;;31.25;19.20;;;;;;;;;;5035828;28;20029;-78
2022/10/24 03:18:42;;;;;;;29.50;21.13;;;;;;;;;;5036127;28;20021;-78
2022/10/24 03:21:08;;;;;;;31.50;21.45;;;;;;;;;;5036111;28;20021;-77
2022/10/24 03:23:35;;;;;;;28.45;21.08;;;;;;;;;;5035793;28;20021;-78
2022/10/24 03:26:01;;;;;;;33.00;20.00;;;;;;;;;;5036002;28;20025;-79
2022/10/24 03:28:27;;;;;;;36.58;23.20;;;;;;;;;;5035944;28;20093;-78
2022/10/24 03:30:55;;;;;;;30.98;21.45;;;;;;;;;;5035789;28;20426;-76
2022/10/24 03:33:21;;;;;;;40.70;23.15;;;;;;;;;;5035958;28;20025;-78
2022/10/24 03:35:51;;;;;;;36.92;22.50;;;;;;;;;;5035775;28;20017;-77
2022/10/24 03:38:17;;;;;;;38.67;22.23;;;;;;;;;;5035574;28;20025;-79
2022/10/24 03:40:43;;;;;;;45.53;24.25;;;;;;;;;;5035863;28;20020;-76
2022/10/24 03:43:09;;;;;;;35.58;23.85;;;;;;;;;;5035722;28;20032;-79
2022/10/24 03:45:36;;;;;;;34.42;23.25;;;;;;;;;;5035309;28;20017;-79
2022/10/24 03:48:03;;;;;;;34.75;22.20;;;;;;;;;;5035731;28;20119;-78
2022/10/24 03:50:29;;;;;;;35.75;22.55;;;;;;;;;;5035432;28;20029;-79
2022/10/24 03:52:55;;;;;;;40.95;25.75;;;;;;;;;;5035232;28;20076;-77
2022/10/24 03:55:21;;;;;;;33.50;25.25;;;;;;;;;;5055804;28;20017;-77
2022/10/24 03:57:48;;;;;;;37.75;24.08;;;;;;;;;;5061144;28;20012;-77
2022/10/24 04:00:14;;;;;;;34.05;23.60;;;;;;;;;;5060798;28;20020;-75
2022/10/24 04:02:40;;;;;;;39.00;23.67;;;;;;;;;;5061406;28;20024;-77
2022/10/24 04:05:07;;;;;;;37.58;25.33;;;;;;;;;;5037737;28;20029;-77
2022/10/24 04:07:33;;;;;;;55.55;32.38;;;;;;;;;;5035855;28;20029;-78
2022/10/24 04:09:59;;;;;;;56.95;34.05;;;;;;;;;;5035774;28;20041;-77
2022/10/24 04:12:25;;;;;;;66.05;36.78;;;;;;;;;;5035489;28;20025;-77
2022/10/24 04:14:51;;;;;;;72.10;38.25;;;;;;;;;;5035932;28;20021;-78
2022/10/24 04:17:18;;;;;;;70.10;37.53;;;;;;;;;;5035380;28;20107;-75
2022/10/24 04:19:44;;;;;;;70.38;36.90;;;;;;;;;;5053293;28;20067;-77
2022/10/24 04:22:10;;;;;;;71.43;39.88;;;;;;;;;;5035343;28;20048;-75
2022/10/24 04:24:38;;;;;;;54.72;31.38;;;;;;;;;;5035385;28;20021;-77
2022/10/24 04:27:04;;;;;;;49.25;29.23;;;;;;;;;;5053108;28;20031;-75
2022/10/24 04:29:31;;;;;;;43.58;28.00;;;;;;;;;;5035139;28;20492;-77
2022/10/24 04:31:57;;;;;;;45.28;28.30;;;;;;;;;;5035216;28;20049;-77
2022/10/24 04:34:23;;;;;;;49.28;31.25;;;;;;;;;;5034976;28;20043;-76
2022/10/24 04:36:49;;;;;;;86.05;43.10;;;;;;;;;;5035292;28;20377;-76
2022/10/24 04:39:15;;;;;;;52.92;31.55;;;;;;;;;;5034892;28;20025;-77
2022/10/24 04:41:42;;;;;;;48.30;28.75;;;;;;;;;;5052766;28;20078;-76
2022/10/24 04:44:08;;;;;;;48.05;31.52;;;;;;;;;;5052809;28;20033;-77
2022/10/24 04:46:34;;;;;;;43.65;27.73;;;;;;;;;;5034851;28;20021;-76
2022/10/24 04:49:00;;;;;;;42.67;26.00;;;;;;;;;;5035099;28;20086;-75
2022/10/24 04:51:26;;;;;;;40.83;26.75;;;;;;;;;;5053038;28;20021;-76
2022/10/24 04:53:52;;;;;;;47.70;27.38;;;;;;;;;;5034833;28;20116;-76
2022/10/24 04:56:19;;;;;;;47.10;28.58;;;;;;;;;;5054113;28;20027;-76
2022/10/24 04:58:45;;;;;;;50.67;29.63;;;;;;;;;;5038669;28;20025;-76
2022/10/24 05:01:11;;;;;;;46.70;29.15;;;;;;;;;;5056120;28;20021;-77
2022/10/24 05:03:37;;;;;;;54.13;33.47;;;;;;;;;;5038637;28;20017;-77
2022/10/24 05:06:04;;;;;;;57.58;34.58;;;;;;;;;;5038624;28;20071;-78
2022/10/24 05:08:30;;;;;;;46.15;30.08;;;;;;;;;;5038185;28;20466;-77
2022/10/24 05:10:56;;;;;;;53.13;29.60;;;;;;;;;;5038685;28;20056;-77
2022/10/24 05:13:22;;;;;;;56.25;32.05;;;;;;;;;;5038516;28;20021;-77
2022/10/24 05:15:48;;;;;;;47.53;28.88;;;;;;;;;;5038156;28;20438;-77
2022/10/24 05:18:14;;;;;;;44.60;28.33;;;;;;;;;;5056320;28;20040;-76
2022/10/24 05:20:40;;;;;;;48.58;28.80;;;;;;;;;;5038399;28;20021;-78
2022/10/24 05:23:08;;;;;;;60.47;32.28;;;;;;;;;;5038119;28;20100;-78
2022/10/24 05:25:34;;;;;;;49.50;28.95;;;;;;;;;;5056206;28;20021;-77
2022/10/24 05:28:00;;;;;;;51.33;29.75;;;;;;;;;;5056321;28;20025;-76
2022/10/24 05:30:26;;;;;;;53.15;29.38;;;;;;;;;;5037932;28;20025;-76
2022/10/24 05:32:52;;;;;;;54.92;31.63;;;;;;;;;;5038124;28;20106;-78
2022/10/24 05:35:18;;;;;;;52.72;30.83;;;;;;;;;;5037964;28;20144;-78
2022/10/24 05:37:44;;;;;;;50.20;28.80;;;;;;;;;;5038083;28;20025;-77
2022/10/24 05:40:11;;;;;;;52.05;29.73;;;;;;;;;;5038087;28;20048;-76
2022/10/24 05:42:37;;;;;;;43.65;27.73;;;;;;;;;;5037897;28;20028;-78
2022/10/24 05:45:07;;;;;;;48.20;29.92;;;;;;;;;;5038178;28;20033;-78
2022/10/24 05:47:33;;;;;;;46.40;29.98;;;;;;;;;;5037949;28;20025;-75
2022/10/24 05:49:59;;;;;;;48.53;28.33;;;;;;;;;;5037555;28;20379;-76
2022/10/24 05:52:25;;;;;;;55.22;33.05;;;;;;;;;;5055577;28;20057;-76
2022/10/24 05:54:52;;;;;;;78.80;42.90;;;;;;;;;;5037665;28;20025;-77
2022/10/24 05:57:18;;;;;;;66.28;37.92;;;;;;;;;;5037442;28;20024;-78
2022/10/24 05:59:44;;;;;;;54.53;34.45;;;;;;;;;;5037643;28;20043;-78
2022/10/24 06:02:16;;;;;;;52.90;30.08;;;;;;;;;;5037650;28;20049;-78
2022/10/24 06:04:43;;;;;;;46.75;29.13;;;;;;;;;;5037282;28;20047;-77
2022/10/24 06:07:09;;;;;;;47.13;30.02;;;;;;;;;;5036640;28;20474;-75
2022/10/24 06:09:35;;;;;;;47.75;29.08;;;;;;;;;;5037058;28;20507;-76
2022/10/24 06:12:01;;;;;;;48.40;30.13;;;;;;;;;;5033610;28;20049;-77
2022/10/24 06:14:27;;;;;;;51.35;32.60;;;;;;;;;;5034099;28;20018;-77
2022/10/24 06:16:53;;;;;;;62.90;36.13;;;;;;;;;;5032909;28;20052;-77
2022/10/24 06:19:20;;;;;;;52.38;33.28;;;;;;;;;;5033249;28;20082;-78
2022/10/24 06:21:47;;;;;;;51.85;31.25;;;;;;;;;;5033711;28;20032;-78
2022/10/24 06:24:13;;;;;;;56.90;34.13;;;;;;;;;;5033238;28;20021;-78
2022/10/24 06:26:39;;;;;;;53.28;32.33;;;;;;;;;;5032726;28;20025;-75
2022/10/24 06:29:05;;;;;;;48.25;30.25;;;;;;;;;;5033413;28;20034;-74
2022/10/24 06:31:34;;;;;;;44.90;27.08;;;;;;;;;;5033546;28;20345;-76
2022/10/24 06:34:00;;;;;;;45.95;27.90;;;;;;;;;;5033591;28;20108;-75
2022/10/24 06:36:26;;;;;;;49.20;32.20;;;;;;;;;;5033637;28;20029;-76
2022/10/24 06:38:56;;;;;;;49.65;31.98;;;;;;;;;;5034265;28;20032;-76
2022/10/24 06:41:22;;;;;;;53.63;32.75;;;;;;;;;;5033518;28;20079;-78
2022/10/24 06:43:48;;;;;;;45.72;29.13;;;;;;;;;;5034815;28;20025;-75
2022/10/24 06:46:16;;;;;;;45.47;28.38;;;;;;;;;;5033105;28;20018;-76
2022/10/24 06:48:43;;;;;;;49.13;30.50;;;;;;;;;;5033561;28;20043;-79
2022/10/24 06:51:09;;;;;;;41.90;28.58;;;;;;;;;;5017894;28;20487;-77
2022/10/24 06:53:35;;;;;;;52.00;30.13;;;;;;;;;;5010570;28;20050;-78
2022/10/24 06:56:03;;;;;;;41.15;28.55;;;;;;;;;;5009615;28;20097;-79
2022/10/24 06:58:32;;;;;;;45.22;30.75;;;;;;;;;;5010278;28;20030;-79
2022/10/24 07:00:59;;;;;;;59.63;43.58;;;;;;;;;;5009799;28;20409;-78
2022/10/24 07:03:25;;;;;;;46.25;31.35;;;;;;;;;;5010110;28;20019;-76
2022/10/24 07:05:51;;;;;;;43.45;30.70;;;;;;;;;;4995000;28;20038;-79
2022/10/24 07:08:18;;;;;;;38.63;28.02;;;;;;;;;;5009739;28;20084;-77
2022/10/24 07:10:44;;;;;;;40.35;28.92;;;;;;;;;;5010001;28;20034;-77
2022/10/24 07:13:10;;;;;;;40.63;26.15;;;;;;;;;;5009872;28;20026;-77
2022/10/24 07:15:36;;;;;;;44.45;27.42;;;;;;;;;;5009821;28;20022;-77
2022/10/24 07:18:03;;;;;;;42.75;27.27;;;;;;;;;;5009962;28;20392;-78
2022/10/24 07:20:29;;;;;;;38.72;25.50;;;;;;;;;;5009297;28;20088;-77
2022/10/24 07:22:55;;;;;;;38.38;26.33;;;;;;;;;;4994673;28;20456;-79
2022/10/24 07:25:21;;;;;;;47.15;27.05;;;;;;;;;;5009721;28;20029;-76
2022/10/24 07:27:51;;;;;;;45.75;30.88;;;;;;;;;;4994642;28;20469;-77
2022/10/24 07:30:18;;;;;;;40.97;26.92;;;;;;;;;;5009728;28;20022;-75
2022/10/24 07:32:44;;;;;;;40.58;26.48;;;;;;;;;;5009610;28;20026;-76
2022/10/24 07:35:11;;;;;;;44.45;24.35;;;;;;;;;;5009369;28;20022;-75
2022/10/24 07:37:37;;;;;;;35.80;24.55;;;;;;;;;;5009636;28;20526;-75
2022/10/24 07:40:03;;;;;;;33.92;24.25;;;;;;;;;;4994421;28;20062;-77
2022/10/24 07:42:30;;;;;;;34.10;23.90;;;;;;;;;;5009310;28;20479;-78
2022/10/24 07:44:56;;;;;;;32.88;23.15;;;;;;;;;;4994498;28;20026;-76
2022/10/24 07:47:22;;;;;;;35.33;21.38;;;;;;;;;;4994414;28;20452;-81
2022/10/24 07:49:48;;;;;;;29.17;20.33;;;;;;;;;;5009073;28;20035;-79
2022/10/24 07:52:14;;;;;;;31.58;21.08;;;;;;;;;;5019371;28;20052;-78
2022/10/24 07:54:40;;;;;;;31.10;21.42;;;;;;;;;;5032352;28;20033;-77
2022/10/24 07:57:06;;;;;;;40.15;24.92;;;;;;;;;;5031985;28;20021;-77
2022/10/24 07:59:32;;;;;;;35.60;22.70;;;;;;;;;;5032299;28;20461;-80
2022/10/24 08:01:58;;;;;;;30.58;21.38;;;;;;;;;;5033217;28;20075;-78
2022/10/24 08:04:25;;;;;;;26.83;19.73;;;;;;;;;;5032041;28;20021;-76
2022/10/24 08:06:51;;;;;;;27.73;20.35;;;;;;;;;;5032177;28;20021;-78
2022/10/24 08:09:17;;;;;;;29.88;20.00;;;;;;;;;;5032911;28;20506;-79
2022/10/24 08:11:43;;;;;;;30.00;19.17;;;;;;;;;;5031399;28;20028;-78
2022/10/24 08:14:10;;;;;;;31.63;20.83;;;;;;;;;;5032104;28;20068;-78
2022/10/24 08:16:37;;;;;;;33.55;24.33;;;;;;;;;;5031964;28;20356;-76
2022/10/24 08:19:03;;;;;;;36.80;22.52;;;;;;;;;;5033634;28;20057;-76
2022/10/24 08:21:30;;;;;;;32.90;21.23;;;;;;;;;;5033027;28;20022;-75
2022/10/24 08:23:56;;;;;;;26.45;20.27;;;;;;;;;;5033218;28;20100;-77
2022/10/24 08:26:23;;;;;;;28.83;18.13;;;;;;;;;;5032545;28;20028;-77
2022/10/24 08:28:50;;;;;;;26.20;18.70;;;;;;;;;;5033418;28;20033;-76
2022/10/24 08:31:17;;;;;;;27.00;19.60;;;;;;;;;;5035015;28;20045;-78
2022/10/24 08:33:45;;;;;;;26.00;18.77;;;;;;;;;;5038128;28;20017;-77
2022/10/24 08:36:15;;;;;;;27.15;19.10;;;;;;;;;;5035696;28;20048;-77
2022/10/24 08:38:41;;;;;;;28.67;19.83;;;;;;;;;;5035204;28;20482;-77
2022/10/24 08:41:10;;;;;;;30.65;19.63;;;;;;;;;;5035496;28;20079;-77
2022/10/24 08:43:36;;;;;;;31.48;18.65;;;;;;;;;;5036799;28;20021;-76
2022/10/24 08:46:14;;;;;;;30.08;19.73;;;;;;;;;;5036346;28;20029;-77
2022/10/24 08:48:48;;;;;;;28.95;18.90;;;;;;;;;;5035618;28;20037;-78
2022/10/24 08:51:26;;;;;;;27.52;19.17;;;;;;;;;;5036736;28;20096;-75
2022/10/24 08:53:54;;;;;;;31.13;20.70;;;;;;;;;;5036673;28;20127;-76
2022/10/24 08:56:21;;;;;;;25.27;18.02;;;;;;;;;;5036751;28;20075;-75
2022/10/24 08:58:50;;;;;;;26.80;18.65;;;;;;;;;;5036434;28;20022;-75
2022/10/24 09:01:24;;;;;;;26.77;19.38;;;;;;;;;;5037295;28;20017;-77
2022/10/24 09:03:52;;;;;;;30.30;20.60;;;;;;;;;;5037536;28;20104;-78
2022/10/24 09:06:19;;;;;;;26.50;18.85;;;;;;;;;;5035108;28;20022;-77
2022/10/24 09:08:51;;;;;;;24.02;15.70;;;;;;;;;;5035236;28;20044;-74
2022/10/24 09:11:26;;;;;;;26.45;18.95;;;;;;;;;;5036632;28;20029;-75
2022/10/24 09:13:52;;;;;;;74.35;43.50;;;;;;;;;;5036457;28;20529;-76
2022/10/24 09:16:21;;;;;;;34.05;20.23;;;;;;;;;;5035263;28;20041;-76
2022/10/24 09:18:48;;;;;;;65.70;44.53;;;;;;;;;;5035874;28;20481;-75
2022/10/24 09:21:14;;;;;;;67.47;46.70;;;;;;;;;;5037553;28;20087;-76
2022/10/24 09:23:41;;;;;;;63.15;42.25;;;;;;;;;;5036687;28;20053;-77
2022/10/24 09:26:12;;;;;;;27.73;19.52;;;;;;;;;;5038674;28;20025;-77
2022/10/24 09:28:38;;;;;;;27.10;19.17;;;;;;;;;;5037336;28;20475;-75
2022/10/24 09:31:14;;;;;;;26.95;17.05;;;;;;;;;;5035553;28;20486;-76
2022/10/24 09:33:41;;;;;;;29.27;19.08;;;;;;;;;;5035914;28;20021;-77
2022/10/24 09:36:13;;;;;;;23.52;13.75;;;;;;;;;;5037872;28;20037;-77
2022/10/24 09:38:41;;;;;;;25.92;13.30;;;;;;;;;;5037987;28;20111;-78
2022/10/24 09:41:12;;;;;;;26.13;17.55;;;;;;;;;;5036733;28;20412;-74
2022/10/24 09:43:45;;;;;;;24.30;16.40;;;;;;;;;;5035114;28;20115;-75
2022/10/24 09:46:14;;;;;;;20.50;13.32;;;;;;;;;;5036238;28;20463;-76
2022/10/24 09:49:01;;;;;;;21.45;12.63;;;;;;;;;;5034800;28;20044;-74
2022/10/24 09:51:27;;;;;;;22.52;13.52;;;;;;;;;;5036039;28;20021;-75
2022/10/24 09:54:08;;;;;;;22.27;14.23;;;486.70;2380.80;;;;;;5034674;28;20025;-77
2022/10/24 09:56:35;;;;;;;26.70;17.13;;;;;;;;;;5034158;28;20356;-77
2022/10/24 09:59:17;;;;;;;25.52;14.52;;;;;;;;;;5034312;28;20091;-77
2022/10/24 10:01:44;;;;;;;21.95;15.68;;;487.10;2380.80;;;;;;5035397;28;20022;-76
2022/10/24 10:04:16;;;;;;;41.42;16.83;;;487.00;2380.80;;;;;;5034726;28;20407;-76
2022/10/24 10:06:49;;;;;;;26.67;16.75;;;487.00;2380.80;;;;;;5035491;28;20030;-76
2022/10/24 10:09:24;;;;;;;24.13;14.15;;;487.30;2380.80;;;;;;5034680;28;20116;-76
2022/10/24 10:11:55;;;;;;;21.92;13.55;;;487.30;2380.80;;;;;;5035452;28;20032;-77
2022/10/24 10:14:24;;;;;;;24.42;13.35;;;512.00;2380.80;;;;;;5017653;28;20022;-76
2022/10/24 10:17:04;;;;;;;24.35;14.88;;;;;;;;;;5017411;28;20025;-77
2022/10/24 10:19:44;;;;;;;48.58;34.20;;;512.50;2380.80;;;;;;5034095;28;20030;-76
2022/10/24 10:22:27;;;;;;;21.60;15.32;;;;;;;;;;5048578;28;20029;-77
2022/10/24 10:24:54;;;;;;;22.08;14.27;;;;;;;;;;5054507;28;20021;-76
2022/10/24 10:27:29;;;;;;;21.40;11.90;;;;;;;;;;5053915;28;20044;-77
2022/10/24 10:30:16;;;;;;;17.75;10.95;;;;;;;;;;5054587;28;20478;-77
2022/10/24 10:32:42;;;;;;;29.00;15.52;;;;;;;;;;5037266;28;20049;-77
2022/10/24 10:35:15;;;;;;;24.17;13.00;;;;;;;;;;5054860;28;20024;-77
2022/10/24 10:37:48;;;;;;;25.15;14.13;;;;;;;;;;5036879;28;20036;-77
2022/10/24 10:40:17;;;;;;;27.27;14.50;;;;;;;;;;5055083;28;20063;-77
2022/10/24 10:43:01;;;;;;;18.55;10.88;;;;;;;;;;5055091;28;20021;-76
2022/10/24 10:45:59;;;;;;;21.13;12.55;;;538.30;2406.40;;;;;;5054544;28;20025;-76
2022/10/24 10:48:31;;;;;;;20.75;11.57;;;538.50;2406.40;;;;;;4966642;28;20054;-76
2022/10/24 10:51:34;;;;;;;18.42;11.13;;;538.50;2406.40;;;;;;5041407;28;20425;-76
2022/10/24 10:54:18;;;;;;;19.38;12.18;;;563.20;2432.00;;;;;;5014813;28;20034;-77
2022/10/24 10:56:50;;;;;;;22.48;10.35;;;563.20;2432.00;;;;;;5013869;28;20053;-76
2022/10/24 10:59:47;;;;;;;26.52;11.68;;;563.20;2432.00;;;;;;5013540;28;20030;-75
2022/10/24 11:02:32;;;;;;;17.58;10.10;;;563.30;2432.00;;;;;;5029571;28;20030;-76
2022/10/24 11:05:03;;;;;;;23.90;12.18;;;563.50;2432.00;;;;;;5009436;28;20113;-77
2022/10/24 11:07:38;;;;;;;21.47;11.93;;;563.90;2432.00;;;;;;5009701;28;20073;-77
2022/10/24 11:10:17;;;;;;;22.00;10.45;;;563.90;2432.00;;;;;;4993202;28;20288;-76
2022/10/24 11:12:44;;;;;;;17.08;10.35;;;;;;;;;;5010128;28;20058;-76
2022/10/24 11:15:25;;;;;;;14.73;9.75;;;;;;;;;;4994756;28;20019;-77
2022/10/24 11:17:52;;;;;;;16.25;9.73;;;;;;;;;;4995350;28;20026;-76
2022/10/24 11:20:24;;;;;;;19.00;10.82;;;;;;;;;;4995537;28;20031;-76
2022/10/24 11:22:50;;;;;;;;;;;;;;;;;;5010573;28;20029;-77
2022/10/24 11:25:20;;;;;;;18.95;10.32;;;;;;;;;;4994396;28;20004;-77
2022/10/24 11:27:58;;;;;;;23.98;12.02;;;;;;;;;;4994281;28;20061;-75
2022/10/24 11:30:34;;;;;;;16.83;10.60;;;;;;;;;;5009531;28;20546;-76
2022/10/24 11:33:02;;;;;;;21.90;10.10;;;;;;;;;;5009700;28;20113;-76
2022/10/24 11:35:32;;;;;;;21.40;10.25;;;;;;;;;;5009789;28;20543;-76
2022/10/24 11:38:12;;;;;;;17.25;10.68;;;;;;;;;;4994223;28;20027;-76
2022/10/24 11:40:39;;;;;;;18.50;10.68;;;;;;;;;;5009716;28;20080;-77
2022/10/24 11:43:24;;;;;;;22.27;13.05;;;;;;;;;;5003822;28;20562;-77
2022/10/24 11:45:59;;;;;;;24.80;11.60;;;640.30;2380.80;;;;;;5020099;28;20464;-76
2022/10/24 11:48:42;;;;;;;25.58;12.07;;;;;;;;;;5017760;28;20030;-76
2022/10/24 11:51:12;;;;;;;20.05;10.82;;;;;;;;;;4994675;28;20472;-76
2022/10/24 11:53:44;;;;;;;19.70;10.43;;;;;;;;;;5009266;28;20043;-76
2022/10/24 11:56:30;;;;;;;15.70;10.60;;;640.80;2329.60;;;;;;4994794;28;20109;-77
2022/10/24 11:59:02;;;;;;;20.88;11.13;;;665.60;2304.00;;;;;;5009733;28;20034;-78
2022/10/24 12:01:58;;;;;;;18.70;11.55;;;665.60;2304.00;;;;;;5009378;28;20087;-77
2022/10/24 12:05:02;;;;;;;24.85;10.70;;;665.90;2380.80;;;;;;5009046;28;20050;-77
2022/10/24 12:07:49;;;;;;;23.52;11.40;;;665.90;2278.40;;;;;;5008141;28;20045;-78
2022/10/24 12:10:44;;;;;;;22.17;13.57;;;665.90;2278.40;;;;;;5009326;28;20423;-77
2022/10/24 12:13:35;;;;;;;30.35;17.52;;;666.00;2278.40;;;;;;4994047;28;20077;-76
2022/10/24 12:16:19;;;;;;;34.58;19.30;;;666.20;2329.60;;;;;;4994381;28;20538;-77
2022/10/24 12:18:48;;;;;;;38.75;26.02;;;666.20;2252.80;;;;;;4993756;28;20033;-76
2022/10/24 12:21:24;;;;;;;25.02;16.45;;;666.40;2252.80;;;;;;4994154;28;20089;-77
2022/10/24 12:23:58;;;;;;;32.92;20.13;;;666.50;2227.20;;;;;;4993792;28;20026;-77
2022/10/24 12:26:34;;;;;;;24.75;14.45;;;691.20;2201.60;;;;;;4993673;28;20019;-75
2022/10/24 12:29:05;;;;;;;29.05;13.43;;;691.30;2201.60;;;;;;5008943;28;20042;-77
2022/10/24 12:31:36;;;;;;;21.65;10.27;;;691.50;2176.00;;;;;;4993889;28;20050;-75
2022/10/24 12:34:14;;;;;;;30.77;14.60;;;691.60;2150.40;;;;;;4993519;28;20073;-76
2022/10/24 12:37:34;;;;;;;18.55;9.57;;;691.70;2150.40;;;;;;5009045;28;20027;-75
2022/10/24 12:40:40;;;;;;;22.30;9.68;;;691.70;2124.80;;;;;;4991048;28;20491;-76
2022/10/24 12:43:14;;;;;;;19.25;8.18;;;691.70;2073.60;;;;;;4992000;28;20042;-77
2022/10/24 12:45:40;;;;;;;19.58;9.00;;;691.70;2073.60;;;;;;4993774;28;20472;-77
2022/10/24 12:48:25;;;;;;;30.63;19.35;;;691.60;2073.60;;;;;;4992121;28;20113;-76
2022/10/24 12:50:58;;;;;;;19.10;8.93;;;691.90;2099.20;;;;;;5008817;28;20022;-76
2022/10/24 12:53:44;;;;;;;22.25;12.27;;;;;;;;;;5026618;28;20128;-77
2022/10/24 12:56:13;;;;;;;23.90;9.63;;;716.80;2073.60;;;;;;4992573;28;20087;-77
2022/10/24 12:58:41;;;;;;;20.40;12.52;;;691.90;2048.00;;;;;;5015171;28;20040;-76
2022/10/24 13:01:26;;;;;;;22.75;11.02;;;692.10;2073.60;;;;;;5014922;28;20386;-76
2022/10/24 13:04:07;;;;;;;27.83;14.57;;;692.10;2073.60;;;;;;5033021;28;20022;-77
2022/10/24 13:06:54;;;;;;;20.10;9.65;;;716.90;2073.60;;;;;;5031359;28;20025;-77
2022/10/24 13:09:20;;;;;;;16.75;9.02;;;716.80;2048.00;;;;;;5031551;28;20061;-76
2022/10/24 13:12:07;;;;;;;21.25;9.48;;;716.90;2048.00;;;;;;5031622;28;20056;-76
2022/10/24 13:14:39;;;;;;;17.65;10.18;;;716.90;2022.40;;;;;;5032595;28;20120;-76
2022/10/24 13:17:12;;;;;;;;;;;716.90;2022.40;;;;;;5033981;28;20379;-76
2022/10/24 13:19:38;;;;;;;28.27;9.98;;;716.90;2048.00;;;;;;5018350;28;19936;-76
2022/10/24 13:22:05;;;;;;;17.98;9.40;;;692.10;1996.80;;;;;;5018273;28;20025;-76
2022/10/24 13:24:33;;;;;;;19.70;8.18;;;691.90;2022.40;;;;;;5034896;28;20026;-76
2022/10/24 13:27:05;;;;;;;20.40;8.10;;;691.90;1996.80;;;;;;5036267;28;20033;-76
2022/10/24 13:29:31;;;;;;;;;;;691.70;2022.40;;;;;;5035979;28;20034;-76
2022/10/24 13:32:02;;;;;;;28.05;16.20;;;691.60;2022.40;;;;;;5036254;28;19905;-76
2022/10/24 13:34:56;;;;;;;23.58;11.18;;;691.20;2099.20;;;;;;5035100;28;20025;-77
2022/10/24 13:37:53;;;;;;;31.17;15.35;;;666.30;2099.20;;;;;;5019504;28;20040;-76
2022/10/24 13:40:31;;;;;;;22.83;11.65;;;666.20;2099.20;;;;;;5003742;28;20068;-76
2022/10/24 13:43:04;;;;;;;24.60;10.25;;;666.20;2124.80;;;;;;5035832;28;20030;-76
2022/10/24 13:45:53;;;;;;;25.48;11.65;;;665.90;2124.80;;;;;;5035733;28;20029;-77
2022/10/24 13:48:26;;;;;;;23.80;12.07;;;665.60;2176.00;;;;;;5017402;28;20075;-76